Calabogie, Canada
Current Conditions -  °F | °C
As of 6:00 AM on Tuesday 21 Oct 2014 (Local Time) from CYOW Reporting Station
Light Rain Light Rain  
Wind Chill:   Ceiling: 600
Heat Index:   Visibility: 8mi
Dew Point:   Wind: 14mph
Humidity: 93%   Direction: 70°ENE
Pressure: 29.91"   Gusts: 21mph
Location:  45.31°N, 76.72°W
Report Text: CYOW 211000Z 07012G18KT 8SM -RA BKN006 OVC020 05/04 A2991 RMK SC6SC2 SLP132
Loading
Personal Weather Stations






























Interactive Weather Map
Tropical Storm Tracking
New forecast layout! Learn more

10-Day Weather Forecast

Advertisements
Track Severe Weather on mobile